Time;durP1;ratioP1;P1;durP2;ratioP2;P2;SDS_P1;SDS_P2;PMS_P1;PMS_P2;Temp;Humidity;BMP_temperature;BMP_pressure;BME280_temperature;BME280_humidity;BME280_pressure;Samples;Min_cycle;Max_cycle;Signal;HPM_P1;HPM_P2
2021/07/20 00:36:56;;;;;;;11.60;10.60;;;22.20;44.00;;;;;;4864752;23;20508;-80
2021/07/20 00:44:02;;;;;;;;;;;;;;;;;;;;;
2021/07/20 00:57:34;;;;;;;;;;;;;;;;;;;;;
2021/07/20 01:04:46;;;;;;;13.07;11.90;;;22.10;44.00;;;;;;4790352;29;20427;-79
2021/07/20 01:16:03;;;;;;;11.17;10.17;;;22.10;44.10;;;;;;4764561;30;20489;-81
2021/07/20 01:34:09;;;;;;;10.60;9.80;;;22.10;44.10;;;;;;4808844;29;20418;-81
2021/07/20 01:38:11;;;;;;;;;;;;;;;;;;;;;
2021/07/20 01:41:37;;;;;;;11.90;11.00;;;22.10;44.20;;;;;;4684919;30;20435;-82
2021/07/20 01:44:27;;;;;;;10.40;9.50;;;22.10;44.20;;;;;;4702571;30;20440;-82
2021/07/20 01:47:35;;;;;;;10.53;9.73;;;22.10;44.20;;;;;;4756816;30;20496;-81
2021/07/20 01:50:36;;;;;;;;;;;;;;;;;;;;;
2021/07/20 02:18:46;;;;;;;11.30;10.30;;;22.10;44.20;;;;;;4699451;30;20529;-81
2021/07/20 02:26:13;;;;;;;10.60;9.70;;;22.10;44.20;;;;;;4700904;30;20427;-81
2021/07/20 02:33:01;;;;;;;10.53;9.67;;;22.10;44.30;;;;;;4662390;30;20444;-81
2021/07/20 02:35:54;;;;;;;10.67;9.73;;;22.10;45.00;;;;;;4654224;30;20435;-82
2021/07/20 02:39:23;;;;;;;;;;;;;;;;;;;;;
2021/07/20 02:46:06;;;;;;;;;;;;;;;;;;;;;
2021/07/20 02:49:30;;;;;;;;;;;;;;;;;;;;;
2021/07/20 02:56:24;;;;;;;10.47;9.63;;;22.00;44.30;;;;;;4735240;30;20816;-81
2021/07/20 03:05:57;;;;;;;;;;;;;;;;;;;;;
2021/07/20 03:13:29;;;;;;;;;;;;;;;;;;;;;
2021/07/20 03:17:08;;;;;;;10.23;9.43;;;22.00;44.30;;;;;;4676663;30;20434;-80
2021/07/20 03:24:06;;;;;;;;;;;;;;;;;;;;;
2021/07/20 03:30:57;;;;;;;9.60;8.90;;;22.00;44.30;;;;;;4629249;31;20481;-80
2021/07/20 03:57:52;;;;;;;10.17;9.37;;;22.00;44.40;;;;;;4701616;30;20967;-80
2021/07/20 04:01:25;;;;;;;9.60;8.90;;;22.00;44.40;;;;;;4771045;30;20812;-80
2021/07/20 04:07:56;;;;;;;9.33;8.63;;;22.00;44.50;;;;;;4699997;30;20493;-81
2021/07/20 04:11:35;;;;;;;8.20;7.60;;;22.00;44.40;;;;;;4683415;30;20492;-81
2021/07/20 04:14:50;;;;;;;9.80;9.00;;;22.00;44.40;;;;;;4684598;30;20436;-80
2021/07/20 04:17:51;;;;;;;10.17;9.40;;;22.00;44.40;;;;;;4703038;30;20546;-81
2021/07/20 04:20:24;;;;;;;11.27;10.30;;;22.00;44.50;;;;;;4655592;30;21011;-81
2021/07/20 04:26:42;;;;;;;;;;;;;;;;;;;;;
2021/07/20 04:29:32;;;;;;;12.63;11.43;;;22.10;44.80;;;;;;4798605;29;20795;-80
2021/07/20 04:32:42;;;;;;;12.67;11.47;;;22.10;44.90;;;;;;4808403;29;20421;-81
2021/07/20 04:35:26;;;;;;;12.33;11.33;;;22.10;45.00;;;;;;4820382;29;20496;-81
2021/07/20 04:38:49;;;;;;;13.37;12.17;;;22.10;44.80;;;;;;4814891;29;20963;-81
2021/07/20 04:41:24;;;;;;;12.47;11.47;;;22.10;44.80;;;;;;4828072;29;20446;-81
2021/07/20 04:44:02;;;;;;;14.43;13.00;;;22.10;44.80;;;;;;4828222;29;20431;-80
2021/07/20 04:46:34;;;;;;;12.50;11.40;;;22.10;44.80;;;;;;4828524;29;20433;-81
2021/07/20 04:49:40;;;;;;;12.23;11.13;;;22.10;44.80;;;;;;4826943;29;20460;-82
2021/07/20 04:52:24;;;;;;;15.80;11.60;;;22.10;44.90;;;;;;4823633;29;20437;-79
2021/07/20 04:54:57;;;;;;;14.37;13.10;;;22.10;45.00;;;;;;4827742;29;20550;-80
2021/07/20 04:57:34;;;;;;;13.80;12.47;;;22.10;45.00;;;;;;4822579;29;20504;-81
2021/07/20 05:00:25;;;;;;;13.97;12.67;;;22.10;45.00;;;;;;4824823;29;20472;-81
2021/07/20 05:02:58;;;;;;;13.00;11.70;;;22.10;45.20;;;;;;4829538;29;20416;-81
2021/07/20 05:05:32;;;;;;;12.10;11.20;;;22.10;45.00;;;;;;4787016;29;20432;-80
2021/07/20 05:08:00;;;;;;;14.13;13.03;;;22.10;45.00;;;;;;4812683;29;21128;-81
2021/07/20 05:10:26;;;;;;;12.50;11.40;;;22.10;45.00;;;;;;4812053;29;20492;-80
2021/07/20 05:12:52;;;;;;;13.30;12.20;;;22.10;45.00;;;;;;4828156;29;20445;-79
2021/07/20 05:15:20;;;;;;;14.00;12.77;;;22.10;45.00;;;;;;4813018;29;20974;-80
2021/07/20 05:17:47;;;;;;;12.80;11.70;;;22.10;45.00;;;;;;4827995;29;20789;-81
2021/07/20 05:20:16;;;;;;;12.80;11.60;;;22.10;44.90;;;;;;4828453;29;20452;-80
2021/07/20 05:22:43;;;;;;;12.70;11.67;;;22.10;44.80;;;;;;4829177;29;20453;-81
2021/07/20 05:25:10;;;;;;;12.40;11.40;;;22.10;44.80;;;;;;4828018;29;20417;-81
2021/07/20 05:27:40;;;;;;;12.37;11.23;;;22.10;44.80;;;;;;4826169;29;20446;-81
2021/07/20 05:30:07;;;;;;;13.97;12.60;;;22.10;44.80;;;;;;4830069;29;20525;-80
2021/07/20 05:32:36;;;;;;;14.20;13.00;;;22.10;44.80;;;;;;4830054;29;20453;-81
2021/07/20 05:35:04;;;;;;;13.57;12.37;;;22.10;44.70;;;;;;4830029;29;20939;-80
2021/07/20 05:37:35;;;;;;;12.23;11.17;;;22.10;44.70;;;;;;4830044;29;20447;-80
2021/07/20 05:40:02;;;;;;;14.33;11.70;;;22.10;44.70;;;;;;4827622;29;20497;-82
2021/07/20 05:42:28;;;;;;;13.10;11.67;;;22.10;44.80;;;;;;4827718;29;20506;-82
2021/07/20 05:44:54;;;;;;;15.10;13.07;;;22.10;44.80;;;;;;4828243;29;20422;-80
2021/07/20 05:47:23;;;;;;;12.03;10.87;;;22.10;44.90;;;;;;4827668;29;20455;-80
2021/07/20 05:49:48;;;;;;;13.03;11.80;;;22.10;45.10;;;;;;4827277;29;20212;-81
2021/07/20 05:55:15;;;;;;;12.10;10.93;;;22.10;45.10;;;;;;4827551;29;20849;-81
2021/07/20 05:57:47;;;;;;;12.53;11.47;;;22.10;45.10;;;;;;4826185;29;20474;-80
2021/07/20 06:00:29;;;;;;;11.90;10.90;;;22.10;45.10;;;;;;4826772;29;20425;-80
2021/07/20 06:02:56;;;;;;;11.67;10.57;;;22.10;44.90;;;;;;4825748;29;20433;-80
2021/07/20 06:05:53;;;;;;;12.50;11.20;;;22.10;45.00;;;;;;4827151;29;20477;-80
2021/07/20 06:08:21;;;;;;;12.23;11.00;;;22.10;44.50;;;;;;4826144;29;20449;-80
2021/07/20 06:10:57;;;;;;;12.80;11.60;;;22.10;44.60;;;;;;4825857;29;20465;-82
2021/07/20 06:13:26;;;;;;;13.40;12.00;;;22.10;44.30;;;;;;4826943;29;20452;-80
2021/07/20 06:15:53;;;;;;;12.00;11.00;;;22.10;44.10;;;;;;4825780;29;20974;-80
2021/07/20 06:18:19;;;;;;;12.90;11.73;;;22.00;44.00;;;;;;4825868;29;20441;-80
2021/07/20 06:20:56;;;;;;;11.43;10.43;;;22.00;43.40;;;;;;4827149;29;20425;-79
2021/07/20 06:23:31;;;;;;;12.97;11.70;;;22.00;43.20;;;;;;4826433;29;20444;-78
2021/07/20 06:25:57;;;;;;;13.80;12.60;;;22.00;43.40;;;;;;4825405;29;20527;-81
2021/07/20 06:28:25;;;;;;;13.07;11.80;;;22.00;43.30;;;;;;4825359;29;20445;-80
2021/07/20 06:30:51;;;;;;;12.27;11.17;;;22.00;43.60;;;;;;4826215;29;20963;-80
2021/07/20 06:33:18;;;;;;;15.40;12.57;;;22.00;43.60;;;;;;4825970;29;20413;-79
2021/07/20 06:35:46;;;;;;;13.20;11.90;;;22.00;42.90;;;;;;4825202;29;20510;-80
2021/07/20 06:38:15;;;;;;;13.13;12.00;;;22.00;42.10;;;;;;4826375;29;20437;-80
2021/07/20 06:40:44;;;;;;;13.70;12.60;;;21.90;42.00;;;;;;4826104;29;20417;-81
2021/07/20 06:43:11;;;;;;;13.33;11.93;;;21.90;42.00;;;;;;4825746;29;20920;-79
2021/07/20 06:45:38;;;;;;;13.10;11.80;;;21.90;42.00;;;;;;4824416;29;20437;-79
2021/07/20 06:48:05;;;;;;;12.63;11.03;;;21.90;42.40;;;;;;4825808;29;20520;-80
2021/07/20 06:50:31;;;;;;;13.60;12.43;;;21.90;42.00;;;;;;4823946;29;20473;-80
2021/07/20 06:52:57;;;;;;;14.03;11.40;;;21.90;42.00;;;;;;4825348;29;20525;-78
2021/07/20 06:55:25;;;;;;;15.63;11.80;;;21.90;42.00;;;;;;4832880;29;20626;-78
2021/07/20 06:57:53;;;;;;;14.40;11.90;;;21.80;41.90;;;;;;4824701;29;20720;-78
2021/07/20 07:00:19;;;;;;;12.70;11.43;;;21.80;42.00;;;;;;4823860;29;20414;-78
2021/07/20 07:02:51;;;;;;;13.77;12.57;;;21.90;42.00;;;;;;4823458;29;20440;-79
2021/07/20 07:05:17;;;;;;;15.50;12.23;;;21.90;42.00;;;;;;4824024;29;20437;-79
2021/07/20 07:07:46;;;;;;;12.80;11.60;;;21.80;41.90;;;;;;4825989;29;20506;-80
2021/07/20 07:10:14;;;;;;;13.40;12.10;;;21.80;41.90;;;;;;4827926;29;20480;-81
2021/07/20 07:12:40;;;;;;;12.87;11.37;;;21.80;41.40;;;;;;4827092;29;20451;-80
2021/07/20 07:15:07;;;;;;;13.27;12.03;;;21.80;41.90;;;;;;4827016;29;20520;-80
2021/07/20 07:17:34;;;;;;;12.50;11.23;;;21.80;41.90;;;;;;4828544;29;20207;-80
2021/07/20 07:20:01;;;;;;;13.47;11.37;;;21.80;41.90;;;;;;4826818;29;20525;-80
2021/07/20 07:22:27;;;;;;;13.17;11.97;;;21.80;41.90;;;;;;4824039;29;20441;-80
2021/07/20 07:24:54;;;;;;;13.27;11.73;;;21.80;41.70;;;;;;4826347;29;20425;-80
2021/07/20 07:27:21;;;;;;;13.30;12.10;;;21.80;41.90;;;;;;4827364;29;20440;-81
2021/07/20 07:29:50;;;;;;;12.57;11.47;;;21.80;41.90;;;;;;4828140;29;20461;-79
2021/07/20 07:32:15;;;;;;;12.40;11.20;;;21.80;41.80;;;;;;4827266;29;20433;-79
2021/07/20 07:34:42;;;;;;;13.13;11.93;;;21.80;41.90;;;;;;4826950;29;20485;-80
2021/07/20 07:37:08;;;;;;;13.23;12.03;;;21.80;41.90;;;;;;4826076;29;20675;-79
2021/07/20 07:39:35;;;;;;;14.67;11.70;;;21.80;41.60;;;;;;4827911;29;20458;-80
2021/07/20 07:42:01;;;;;;;11.77;10.67;;;21.80;41.80;;;;;;4827305;29;20486;-80
2021/07/20 07:44:28;;;;;;;13.30;12.13;;;21.80;41.60;;;;;;4827730;29;20432;-79
2021/07/20 07:46:56;;;;;;;12.07;10.83;;;21.80;41.20;;;;;;4826901;29;20437;-80
2021/07/20 07:49:22;;;;;;;17.10;12.70;;;21.80;41.90;;;;;;4829913;29;20453;-80
2021/07/20 07:51:50;;;;;;;12.37;11.10;;;21.80;41.90;;;;;;4830186;29;20799;-80
2021/07/20 07:54:17;;;;;;;13.00;11.90;;;21.70;41.70;;;;;;4829124;29;20432;-81
2021/07/20 07:56:44;;;;;;;12.17;11.10;;;21.80;42.10;;;;;;4818036;29;20515;-80
2021/07/20 07:59:12;;;;;;;12.80;11.80;;;21.70;41.50;;;;;;4812594;29;20465;-80
2021/07/20 08:01:43;;;;;;;13.73;12.30;;;21.80;41.90;;;;;;4811097;29;20509;-80
2021/07/20 08:04:11;;;;;;;13.17;12.07;;;21.80;41.90;;;;;;4811769;29;20454;-80
2021/07/20 08:06:37;;;;;;;12.23;11.13;;;21.80;41.90;;;;;;4812044;29;20451;-80
2021/07/20 08:09:04;;;;;;;11.43;10.40;;;21.80;41.90;;;;;;4809987;29;20461;-80
2021/07/20 08:11:31;;;;;;;11.83;10.83;;;21.90;42.00;;;;;;4812484;29;20472;-79
2021/07/20 08:14:00;;;;;;;12.73;11.60;;;21.90;42.00;;;;;;4813295;29;20482;-80
2021/07/20 08:16:30;;;;;;;11.80;10.67;;;21.90;42.00;;;;;;4813099;29;20422;-80
2021/07/20 08:18:57;;;;;;;12.47;11.47;;;21.90;41.80;;;;;;4812751;29;20513;-80
2021/07/20 08:21:27;;;;;;;11.90;10.80;;;21.80;41.40;;;;;;4810741;29;20448;-80
2021/07/20 08:23:53;;;;;;;11.23;10.17;;;21.90;41.90;;;;;;4810443;29;20948;-79
2021/07/20 08:26:32;;;;;;;11.33;10.33;;;21.90;41.40;;;;;;4812507;29;20429;-79
2021/07/20 08:29:07;;;;;;;12.27;11.20;;;21.80;41.20;;;;;;4810106;29;20272;-80
2021/07/20 08:31:38;;;;;;;12.00;11.03;;;21.80;41.50;;;;;;4811908;29;20522;-80
2021/07/20 08:34:04;;;;;;;12.33;11.10;;;21.90;42.00;;;;;;4812154;29;20478;-80
2021/07/20 08:36:34;;;;;;;12.10;11.00;;;21.90;42.00;;;;;;4810687;29;20444;-81
2021/07/20 08:39:03;;;;;;;12.23;10.97;;;21.90;41.00;;;;;;4810024;29;20861;-80
2021/07/20 08:42:20;;;;;;;12.30;11.07;;;21.90;41.00;;;;;;4823111;29;20476;-80
2021/07/20 08:45:01;;;;;;;11.40;9.90;;;21.90;41.40;;;;;;4810556;29;20510;-80
2021/07/20 08:47:46;;;;;;;10.00;9.13;;;21.90;41.30;;;;;;4809176;29;20481;-81
2021/07/20 08:50:24;;;;;;;11.60;10.63;;;21.90;42.00;;;;;;4811242;29;20618;-82
2021/07/20 08:53:26;;;;;;;12.07;10.30;;;21.90;41.00;;;;;;4811496;29;20417;-82
2021/07/20 08:55:53;;;;;;;11.20;10.30;;;22.00;41.60;;;;;;4813308;29;20418;-81
2021/07/20 08:58:34;;;;;;;11.40;10.30;;;21.90;41.20;;;;;;4812230;29;20450;-81
2021/07/20 09:01:32;;;;;;;11.70;10.53;;;21.90;40.90;;;;;;4812841;29;20417;-80
2021/07/20 09:04:11;;;;;;;11.13;10.10;;;21.90;40.70;;;;;;4781430;29;20952;-80
2021/07/20 09:06:48;;;;;;;13.00;10.90;;;21.90;40.90;;;;;;4829932;29;20438;-80
2021/07/20 09:09:24;;;;;;;11.10;10.00;;;21.90;40.80;;;;;;4828951;29;20448;-81
2021/07/20 09:12:10;;;;;;;11.67;10.47;;;21.90;40.40;;;;;;4829466;29;20480;-80
2021/07/20 09:15:00;;;;;;;11.63;10.60;;;21.90;40.50;;;;;;4830569;29;20487;-81
2021/07/20 09:17:48;;;;;;;11.73;10.73;;;22.00;40.80;;;;;;4830314;29;20430;-81
2021/07/20 09:20:17;;;;;;;11.60;10.50;;;22.00;40.70;;;;;;4830182;29;20547;-80
2021/07/20 09:22:56;;;;;;;11.47;10.40;;;22.00;40.10;;;;;;4829316;29;20529;-81
2021/07/20 09:25:32;;;;;;;10.83;10.03;;;22.00;40.20;;;;;;4828322;29;20850;-81
2021/07/20 09:28:13;;;;;;;11.90;10.87;;;22.00;39.60;;;;;;4824682;29;20458;-81
2021/07/20 09:30:43;;;;;;;13.03;11.93;;;22.00;40.00;;;;;;4811773;29;20481;-82
2021/07/20 09:33:33;;;;;;;13.67;11.83;;;22.00;40.20;;;;;;4824440;29;20944;-82
2021/07/20 09:36:08;;;;;;;12.00;10.83;;;22.00;39.90;;;;;;4823953;29;20525;-81
2021/07/20 09:38:55;;;;;;;11.97;10.20;;;22.00;40.00;;;;;;4824624;29;20454;-81
2021/07/20 09:41:33;;;;;;;13.23;11.30;;;22.00;40.20;;;;;;4810915;29;20452;-80
2021/07/20 09:44:12;;;;;;;12.13;11.07;;;22.10;40.40;;;;;;4810286;29;20430;-81
2021/07/20 09:46:42;;;;;;;12.40;11.37;;;22.00;40.10;;;;;;4809210;29;20426;-81
2021/07/20 09:49:24;;;;;;;12.60;11.30;;;22.10;40.60;;;;;;4810638;29;20442;-81
2021/07/20 09:52:13;;;;;;;14.33;13.03;;;22.10;39.80;;;;;;4808659;29;20430;-80
2021/07/20 09:55:16;;;;;;;12.30;11.10;;;22.10;40.10;;;;;;4800890;29;20441;-81
2021/07/20 09:58:22;;;;;;;12.60;11.47;;;22.10;40.00;;;;;;4823036;29;20598;-80
2021/07/20 10:01:05;;;;;;;14.20;12.80;;;22.10;39.10;;;;;;4823211;29;20533;-81
2021/07/20 10:04:07;;;;;;;13.67;12.47;;;22.10;38.10;;;;;;4823659;29;20513;-81
2021/07/20 10:06:57;;;;;;;14.73;13.23;;;22.10;39.10;;;;;;4796997;29;20490;-80
2021/07/20 10:09:43;;;;;;;12.70;11.60;;;22.10;37.90;;;;;;4807364;29;20836;-80
2021/07/20 10:12:36;;;;;;;14.03;12.70;;;22.20;38.90;;;;;;4822946;29;20507;-81
2021/07/20 10:15:21;;;;;;;13.90;12.60;;;22.20;39.40;;;;;;4806261;29;20422;-81
2021/07/20 10:21:08;;;;;;;14.30;13.00;;;22.20;39.10;;;;;;4829078;23;21016;-81
2021/07/20 10:27:15;;;;;;;14.00;12.70;;;22.30;38.60;;;;;;4819724;29;20541;-80
2021/07/20 10:30:23;;;;;;;14.53;13.20;;;22.20;38.80;;;;;;4806287;29;20485;-80
2021/07/20 10:33:25;;;;;;;12.50;11.20;;;22.30;38.80;;;;;;4783170;30;20419;-80
2021/07/20 10:40:07;;;;;;;13.07;11.90;;;22.30;38.20;;;;;;4778589;29;20453;-81
2021/07/20 10:43:08;;;;;;;14.47;12.97;;;22.30;38.40;;;;;;4809549;29;20411;-82
2021/07/20 10:45:53;;;;;;;14.70;13.30;;;22.30;37.60;;;;;;4808358;29;20433;-81
2021/07/20 10:49:00;;;;;;;14.37;12.97;;;22.20;37.10;;;;;;4808164;29;20450;-81
2021/07/20 10:51:48;;;;;;;13.70;12.30;;;22.20;38.00;;;;;;4749169;29;20489;-81
2021/07/20 10:54:50;;;;;;;13.00;11.63;;;22.30;39.00;;;;;;4792233;29;20474;-81
2021/07/20 11:01:28;;;;;;;12.97;11.90;;;22.20;38.00;;;;;;4808300;29;20413;-81
2021/07/20 11:04:32;;;;;;;14.43;13.17;;;22.30;38.70;;;;;;4770762;30;20476;-81
2021/07/20 11:07:48;;;;;;;12.83;11.60;;;22.30;37.10;;;;;;4770549;30;20450;-81
2021/07/20 11:14:25;;;;;;;;;;;;;;;;;;;;;
2021/07/20 11:17:47;;;;;;;13.70;12.50;;;22.30;37.70;;;;;;4746205;30;20933;-81
2021/07/20 11:24:44;;;;;;;12.63;11.43;;;22.30;38.30;;;;;;4716599;30;20414;-81
2021/07/20 11:28:00;;;;;;;13.37;12.17;;;22.40;39.00;;;;;;4682426;30;20879;-81
2021/07/20 11:43:27;;;;;;;15.20;13.80;;;22.30;37.80;;;;;;4825629;29;20996;-80
2021/07/20 11:57:21;;;;;;;;;;;;;;;;;;;;;
2021/07/20 12:03:59;;;;;;;14.17;12.77;;;22.40;35.80;;;;;;4812065;29;20458;-80
2021/07/20 12:23:52;;;;;;;13.20;12.00;;;22.40;36.50;;;;;;4841623;23;20505;-78
2021/07/20 12:34:08;;;;;;;14.80;13.40;;;22.40;36.20;;;;;;4770240;29;20479;-80
2021/07/20 12:37:02;;;;;;;14.63;13.33;;;22.40;34.80;;;;;;4791028;30;20814;-79
2021/07/20 12:43:44;;;;;;;;;;;;;;;;;;;;;
2021/07/20 12:54:13;;;;;;;15.10;13.70;;;22.40;34.60;;;;;;4780589;30;20454;-79
2021/07/20 12:57:19;;;;;;;13.70;12.17;;;22.40;33.10;;;;;;4776163;29;20439;-78
2021/07/20 13:00:42;;;;;;;;;;;;;;;;;;;;;
2021/07/20 13:03:40;;;;;;;14.40;12.20;;;22.40;33.10;;;;;;4783944;30;20438;-78
2021/07/20 13:15:28;;;;;;;13.97;12.67;;;22.40;35.50;;;;;;4832125;29;20862;-79
2021/07/20 13:24:48;;;;;;;13.87;12.60;;;22.40;32.50;;;;;;4774775;30;20420;-79
2021/07/20 13:38:21;;;;;;;14.83;12.53;;;22.40;34.50;;;;;;4736474;30;20408;-80
2021/07/20 13:41:30;;;;;;;12.03;10.80;;;22.40;35.50;;;;;;4734414;30;20446;-80
2021/07/20 13:58:09;;;;;;;12.27;10.97;;;22.30;36.20;;;;;;4844735;29;20503;-80
2021/07/20 14:01:15;;;;;;;13.93;12.67;;;22.30;36.30;;;;;;4843736;29;20814;-80
2021/07/20 14:04:18;;;;;;;13.50;12.13;;;22.30;36.40;;;;;;4829140;29;20588;-81
2021/07/20 14:07:34;;;;;;;;;;;;;;;;;;;;;
2021/07/20 14:10:07;;;;;;;12.37;11.30;;;22.30;36.50;;;;;;4824207;29;20567;-80
2021/07/20 14:23:54;;;;;;;;;;;;;;;;;;;;;
2021/07/20 14:34:18;;;;;;;13.47;11.83;;;22.30;34.80;;;;;;4668579;30;20458;-81
2021/07/20 14:41:14;;;;;;;12.87;11.67;;;22.30;35.40;;;;;;4588258;31;20536;-81
2021/07/20 14:48:18;;;;;;;;;;;;;;;;;;;;;
2021/07/20 14:51:35;;;;;;;16.67;14.37;;;22.20;35.50;;;;;;4599365;31;20500;-81
2021/07/20 15:12:30;;;;;;;14.20;12.20;;;22.40;36.90;;;;;;4648045;30;20513;-82
2021/07/20 15:15:18;;;;;;;13.20;11.97;;;22.30;36.90;;;;;;4769038;30;20461;-81
2021/07/20 15:18:24;;;;;;;13.97;12.57;;;22.40;37.10;;;;;;4790602;29;20454;-81
2021/07/20 15:29:35;;;;;;;14.90;11.97;;;22.40;37.20;;;;;;4791311;30;20473;-81
2021/07/20 15:33:05;;;;;;;12.83;11.70;;;22.40;37.20;;;;;;4772915;30;20447;-81
2021/07/20 15:36:24;;;;;;;14.27;12.83;;;22.40;37.30;;;;;;4779687;30;20436;-81
2021/07/20 15:39:58;;;;;;;18.23;13.10;;;22.40;37.30;;;;;;4754652;30;20473;-81
2021/07/20 15:53:56;;;;;;;16.10;14.33;;;22.40;37.40;;;;;;4679330;30;20439;-82
2021/07/20 16:04:01;;;;;;;94.83;71.50;;;22.40;38.20;;;;;;4633243;30;20423;-82
2021/07/20 16:21:02;;;;;;;53.00;46.13;;;22.60;39.80;;;;;;4655745;30;20456;-80
2021/07/20 16:43:23;;;;;;;41.97;36.57;;;22.60;38.70;;;;;;4834921;29;20488;-81
2021/07/20 16:46:39;;;;;;;39.97;35.77;;;22.60;38.80;;;;;;4834746;29;20437;-81
2021/07/20 16:53:16;;;;;;;37.70;33.70;;;22.50;38.80;;;;;;4726461;30;20933;-81
2021/07/20 16:59:57;;;;;;;35.43;29.37;;;22.60;38.80;;;;;;4762898;30;20486;-80
2021/07/20 17:12:32;;;;;;;33.67;28.27;;;22.60;38.40;;;;;;4773537;30;20564;-81
2021/07/20 17:30:18;;;;;;;31.40;24.60;;;22.50;38.30;;;;;;4812851;29;20440;-80
2021/07/20 17:32:53;;;;;;;37.13;24.83;;;22.50;38.30;;;;;;4767086;29;20453;-80
2021/07/20 17:35:53;;;;;;;26.23;23.27;;;22.50;38.40;;;;;;4815930;29;20493;-80
2021/07/20 17:39:21;;;;;;;31.27;24.00;;;22.60;38.20;;;;;;4828685;29;20983;-81
2021/07/20 17:42:42;;;;;;;30.57;22.30;;;22.50;38.20;;;;;;4828426;29;20461;-81
2021/07/20 17:45:29;;;;;;;28.93;20.93;;;22.50;38.10;;;;;;4828990;29;20470;-81
2021/07/20 17:48:00;;;;;;;24.90;22.30;;;22.50;38.20;;;;;;4821944;29;20458;-81
2021/07/20 17:50:34;;;;;;;22.57;20.27;;;22.60;38.20;;;;;;4810730;29;20549;-81
2021/07/20 17:53:21;;;;;;;30.40;20.90;;;22.50;38.20;;;;;;4812567;29;20507;-81
2021/07/20 17:56:27;;;;;;;22.83;20.50;;;22.50;38.20;;;;;;4810174;29;20425;-81
2021/07/20 17:59:21;;;;;;;23.23;20.80;;;22.50;38.10;;;;;;4811655;29;20453;-81
2021/07/20 18:02:12;;;;;;;22.80;17.97;;;22.60;38.20;;;;;;4812897;29;20478;-81
2021/07/20 18:05:00;;;;;;;30.40;18.90;;;22.60;38.20;;;;;;4794480;29;20813;-81
2021/07/20 18:07:29;;;;;;;26.00;19.27;;;22.50;38.10;;;;;;4813046;29;20442;-81
2021/07/20 18:09:57;;;;;;;20.13;18.20;;;22.50;38.20;;;;;;4805087;29;20446;-81
2021/07/20 18:13:08;;;;;;;22.07;18.30;;;22.50;38.10;;;;;;4811418;29;20521;-81
2021/07/20 18:15:40;;;;;;;18.50;16.80;;;22.50;38.10;;;;;;4819845;29;20525;-82
2021/07/20 18:18:09;;;;;;;20.73;17.70;;;22.50;38.10;;;;;;4811560;29;20957;-82
2021/07/20 18:20:49;;;;;;;23.47;17.40;;;22.50;38.20;;;;;;4812801;29;20426;-83
2021/07/20 18:23:18;;;;;;;18.87;16.67;;;22.50;38.20;;;;;;4811241;29;20436;-81
2021/07/20 18:25:59;;;;;;;19.97;17.90;;;22.50;38.10;;;;;;4811381;29;20525;-81
2021/07/20 18:28:34;;;;;;;21.13;17.13;;;22.50;38.20;;;;;;4811109;29;20492;-81
2021/07/20 18:31:29;;;;;;;17.33;15.53;;;22.50;38.10;;;;;;4812210;29;20851;-81
2021/07/20 18:34:04;;;;;;;18.63;16.90;;;22.50;38.20;;;;;;4811194;29;20426;-82
2021/07/20 18:36:35;;;;;;;18.93;16.50;;;22.50;38.20;;;;;;4811931;29;20429;-81
2021/07/20 18:39:08;;;;;;;18.70;16.03;;;22.50;38.20;;;;;;4809854;29;20454;-82
2021/07/20 18:41:39;;;;;;;16.30;14.63;;;22.50;38.20;;;;;;4825225;29;20490;-82
2021/07/20 18:44:09;;;;;;;16.37;14.47;;;22.50;38.20;;;;;;4809687;29;20441;-81
2021/07/20 18:46:44;;;;;;;16.70;15.10;;;22.50;38.30;;;;;;4790081;29;21180;-81
2021/07/20 18:49:12;;;;;;;15.07;13.57;;;22.50;38.20;;;;;;4775889;30;20461;-81
2021/07/20 18:51:50;;;;;;;16.17;14.67;;;22.50;38.30;;;;;;4797010;29;20530;-82
2021/07/20 18:54:22;;;;;;;15.90;14.37;;;22.50;38.30;;;;;;4811324;29;20438;-81
2021/07/20 18:57:33;;;;;;;16.27;14.57;;;22.60;38.40;;;;;;4792754;29;20430;-82
2021/07/20 19:00:27;;;;;;;16.37;14.40;;;22.50;38.40;;;;;;4808360;29;20434;-81
2021/07/20 19:03:43;;;;;;;16.57;14.30;;;22.50;38.40;;;;;;4812331;29;20414;-81
2021/07/20 19:09:45;;;;;;;15.23;13.73;;;22.50;38.40;;;;;;4810230;29;20502;-81
2021/07/20 19:12:16;;;;;;;15.57;14.07;;;22.50;38.50;;;;;;4809488;29;20996;-81
2021/07/20 19:15:15;;;;;;;13.60;12.40;;;22.50;38.40;;;;;;4810219;29;20430;-81
2021/07/20 19:20:43;;;;;;;14.03;12.73;;;22.50;38.50;;;;;;4809713;29;20441;-81
2021/07/20 19:23:35;;;;;;;14.80;13.53;;;22.50;38.50;;;;;;4809823;29;20437;-81
2021/07/20 19:26:21;;;;;;;14.17;12.73;;;22.50;39.20;;;;;;4825668;29;20496;-82
2021/07/20 19:29:14;;;;;;;15.00;13.43;;;22.50;38.40;;;;;;4833166;29;20464;-81
2021/07/20 19:32:08;;;;;;;12.90;11.70;;;22.50;38.40;;;;;;4843943;29;20472;-81
2021/07/20 19:34:38;;;;;;;13.90;12.70;;;22.50;38.40;;;;;;4844296;29;20421;-81
2021/07/20 19:37:04;;;;;;;13.30;12.10;;;22.50;38.40;;;;;;4844682;29;20516;-81
2021/07/20 19:39:31;;;;;;;11.97;10.77;;;22.50;38.30;;;;;;4843708;29;20453;-82
2021/07/20 19:41:57;;;;;;;12.80;11.70;;;22.50;38.30;;;;;;4812943;29;20454;-81
2021/07/20 19:44:23;;;;;;;14.63;12.17;;;22.50;38.40;;;;;;4810379;29;20410;-81
2021/07/20 19:46:51;;;;;;;13.60;12.40;;;22.50;38.40;;;;;;4811121;29;20781;-82
2021/07/20 19:49:17;;;;;;;12.60;11.37;;;22.50;38.40;;;;;;4810504;29;20442;-82
2021/07/20 19:51:47;;;;;;;13.60;12.40;;;22.50;38.40;;;;;;4825084;29;20545;-82
2021/07/20 19:54:13;;;;;;;11.30;10.40;;;22.50;38.40;;;;;;4811477;29;20196;-81
2021/07/20 19:56:39;;;;;;;13.13;11.80;;;22.50;38.40;;;;;;4810155;29;20407;-82
2021/07/20 19:59:04;;;;;;;12.97;11.70;;;22.50;38.40;;;;;;4809354;29;20559;-81
2021/07/20 20:01:30;;;;;;;12.27;11.17;;;22.50;38.40;;;;;;4808771;29;20192;-82
2021/07/20 20:03:56;;;;;;;13.60;11.87;;;22.50;38.60;;;;;;4823894;29;20188;-81
2021/07/20 20:06:21;;;;;;;12.83;11.73;;;22.50;38.50;;;;;;4822019;29;20657;-81
2021/07/20 20:08:47;;;;;;;12.53;11.30;;;22.50;38.50;;;;;;4823063;29;20208;-81
2021/07/20 20:11:13;;;;;;;13.20;11.97;;;22.50;38.50;;;;;;4808889;29;20230;-81
2021/07/20 20:13:45;;;;;;;13.67;12.30;;;22.50;38.60;;;;;;4821989;29;20196;-82
2021/07/20 20:16:14;;;;;;;13.17;11.50;;;22.50;38.80;;;;;;4807641;29;20410;-83
2021/07/20 20:18:39;;;;;;;13.43;12.10;;;22.50;38.80;;;;;;4822798;29;20453;-82
2021/07/20 20:21:32;;;;;;;13.63;11.73;;;22.50;39.00;;;;;;4821833;29;20430;-81
2021/07/20 20:23:58;;;;;;;13.30;12.00;;;22.50;39.00;;;;;;4820374;29;20326;-81
2021/07/20 20:26:23;;;;;;;12.63;11.43;;;22.50;39.10;;;;;;4807739;29;20429;-82
2021/07/20 20:28:49;;;;;;;12.37;11.17;;;22.50;39.10;;;;;;4807006;29;20244;-82
2021/07/20 20:31:17;;;;;;;14.13;12.63;;;22.50;39.10;;;;;;4806697;29;20217;-81
2021/07/20 20:33:43;;;;;;;12.20;11.10;;;22.50;39.20;;;;;;4807530;29;20181;-84
2021/07/20 20:36:09;;;;;;;11.43;10.43;;;22.50;39.30;;;;;;4805780;29;20525;-83
2021/07/20 20:38:37;;;;;;;13.23;10.63;;;22.50;39.50;;;;;;4805746;29;20201;-83
2021/07/20 20:41:05;;;;;;;13.07;11.70;;;22.50;39.60;;;;;;4819917;29;20656;-81
2021/07/20 20:43:34;;;;;;;12.80;11.40;;;22.50;39.60;;;;;;4796901;29;20438;-82
2021/07/20 20:45:59;;;;;;;12.70;11.50;;;22.50;39.60;;;;;;4787194;30;20455;-83
2021/07/20 20:57:38;;;;;;;11.10;10.00;;;22.50;39.90;;;;;;4833012;29;20444;-82
2021/07/20 21:04:17;;;;;;;11.40;10.23;;;22.50;40.00;;;;;;4767500;30;20424;-84
2021/07/20 21:16:12;;;;;;;16.80;10.23;;;22.60;40.00;;;;;;4831968;29;20428;-84
2021/07/20 21:19:31;;;;;;;12.23;10.00;;;22.50;39.90;;;;;;4775385;30;20914;-84
2021/07/20 21:25:42;;;;;;;11.57;10.47;;;22.60;40.00;;;;;;4795576;30;20431;-84
2021/07/20 21:35:18;;;;;;;11.77;10.67;;;22.50;40.00;;;;;;4791789;30;20537;-86
2021/07/20 21:38:01;;;;;;;11.43;10.43;;;22.50;40.00;;;;;;4791497;30;20470;-84
2021/07/20 21:41:29;;;;;;;13.50;10.90;;;22.50;40.00;;;;;;4774953;30;20803;-85
2021/07/20 21:45:07;;;;;;;11.23;9.80;;;22.50;40.00;;;;;;4721138;30;20422;-83
2021/07/20 21:52:09;;;;;;;14.43;9.50;;;22.50;40.10;;;;;;4738666;30;20481;-84
2021/07/20 22:09:21;;;;;;;11.17;10.17;;;22.50;40.20;;;;;;4721014;30;20426;-86
2021/07/20 22:15:59;;;;;;;9.40;8.50;;;22.50;40.30;;;;;;4707396;30;20489;-81
2021/07/20 22:19:55;;;;;;;10.40;9.50;;;22.50;40.30;;;;;;4752606;30;20456;-81
2021/07/20 22:23:07;;;;;;;10.80;9.80;;;22.50;40.40;;;;;;4735671;30;20446;-82
2021/07/20 22:30:22;;;;;;;9.83;8.97;;;22.50;40.40;;;;;;4726011;30;20464;-82
2021/07/20 22:33:41;;;;;;;10.27;9.33;;;22.50;40.40;;;;;;4719134;30;20446;-82
2021/07/20 22:36:29;;;;;;;10.47;9.47;;;22.50;40.40;;;;;;4757052;30;20468;-81